Terminal Aerodrome Forecast
Issued by NWS

Home | Current Version | Previous Version | Text Only | Print | Product List | Glossary On
Versions: 1 2 3 4 5 6 7 8 9 10 11 12 13
000
FTUS43 KUNR 011400 AAA
TAFGCC
TAF AMD
KGCC 011449Z 0115/0212 34011KT 5SM -SN BKN030
      TEMPO 0115/0117 2SM -SN
     FM011700 31008KT P6SM SKC
     FM012100 23009KT P6SM SKC
     FM020000 19008KT P6SM SCT250
     FM020800 23008KT P6SM OVC040=

USA.gov is the U.S. government's official web portal to all federal, state and local government web resources and services.